createdAt,value
2022-10-06T00:00:04.902Z,0.93
2022-10-06T00:02:35.603Z,1.17
2022-10-06T00:05:03.339Z,1.53
2022-10-06T00:07:31.105Z,1.00
2022-10-06T00:09:58.774Z,1.30
2022-10-06T00:12:26.584Z,1.10
2022-10-06T00:14:55.594Z,1.20
2022-10-06T00:17:23.263Z,1.10
2022-10-06T00:19:50.984Z,0.80
2022-10-06T00:22:19.123Z,1.10
2022-10-06T00:24:46.808Z,1.20
2022-10-06T00:27:14.512Z,1.27
2022-10-06T00:29:42.530Z,0.90
2022-10-06T00:32:11.529Z,0.90
2022-10-06T00:34:39.186Z,1.27
2022-10-06T00:37:06.864Z,1.27
2022-10-06T00:39:34.476Z,1.30
2022-10-06T00:42:02.177Z,1.23
2022-10-06T00:44:29.957Z,0.93
2022-10-06T00:46:58.302Z,1.00
2022-10-06T00:49:31.128Z,1.17
2022-10-06T00:52:03.933Z,1.20
2022-10-06T00:54:33.208Z,1.00
2022-10-06T00:57:01.180Z,1.23
2022-10-06T00:59:28.816Z,1.20
2022-10-06T01:02:01.758Z,1.13
2022-10-06T01:04:35.201Z,1.27
2022-10-06T01:07:03.414Z,0.90
2022-10-06T01:09:32.537Z,1.17
2022-10-06T01:12:04.197Z,1.00
2022-10-06T01:14:33.078Z,1.10
2022-10-06T01:17:07.666Z,0.97
2022-10-06T01:19:48.585Z,1.10
2022-10-06T01:22:17.970Z,1.23
2022-10-06T01:24:52.473Z,1.07
2022-10-06T01:27:22.275Z,1.20
2022-10-06T01:29:52.845Z,0.80
2022-10-06T01:32:20.596Z,0.97
2022-10-06T01:34:48.328Z,0.90
2022-10-06T01:37:16.207Z,1.00
2022-10-06T01:39:44.412Z,1.13
2022-10-06T01:42:13.445Z,1.20
2022-10-06T01:44:41.093Z,1.20
2022-10-06T01:47:09.230Z,1.10
2022-10-06T01:49:36.878Z,1.20
2022-10-06T01:52:05.194Z,1.20
2022-10-06T01:54:32.997Z,1.40
2022-10-06T01:57:00.740Z,1.83
2022-10-06T01:59:29.789Z,1.50
2022-10-06T02:01:57.582Z,1.00
2022-10-06T02:04:25.382Z,1.67
2022-10-06T02:06:55.593Z,1.20
2022-10-06T02:09:23.668Z,1.33
2022-10-06T02:11:51.728Z,1.40
2022-10-06T02:14:19.760Z,1.50
2022-10-06T02:16:48.808Z,1.40
2022-10-06T02:19:16.477Z,1.40
2022-10-06T02:21:44.092Z,1.60
2022-10-06T02:24:11.717Z,1.57
2022-10-06T02:26:39.882Z,1.47
2022-10-06T02:29:07.820Z,1.67
2022-10-06T02:31:35.527Z,1.53
2022-10-06T02:34:04.676Z,1.43
2022-10-06T02:36:32.503Z,1.70
2022-10-06T02:39:00.715Z,1.60
2022-10-06T02:41:28.435Z,1.60
2022-10-06T02:43:56.144Z,1.80
2022-10-06T02:46:24.299Z,2.10
2022-10-06T02:48:53.804Z,1.33
2022-10-06T02:51:24.509Z,1.40
2022-10-06T02:53:52.862Z,1.57
2022-10-06T02:56:23.027Z,1.87
2022-10-06T02:58:51.921Z,1.70
2022-10-06T03:01:21.418Z,1.87
2022-10-06T03:03:49.617Z,2.10
2022-10-06T03:06:22.938Z,2.10
2022-10-06T03:08:52.897Z,1.90
2022-10-06T03:11:22.529Z,2.40
2022-10-06T03:13:51.392Z,2.40
2022-10-06T03:16:21.144Z,2.40
2022-10-06T03:18:50.003Z,2.27
2022-10-06T03:21:18.274Z,1.83
2022-10-06T03:23:47.657Z,2.13
2022-10-06T03:26:17.653Z,1.87
2022-10-06T03:28:45.844Z,1.90
2022-10-06T03:31:14.435Z,1.90
2022-10-06T03:33:42.628Z,1.70
2022-10-06T03:36:13.671Z,2.20
2022-10-06T03:38:41.726Z,1.90
2022-10-06T03:41:11.349Z,1.93
2022-10-06T03:43:41.168Z,2.00
2022-10-06T03:46:10.953Z,1.93
2022-10-06T03:48:39.209Z,2.07
2022-10-06T03:51:09.425Z,2.13
2022-10-06T03:53:37.456Z,2.10
2022-10-06T03:56:07.764Z,1.90
2022-10-06T03:58:37.420Z,2.27
2022-10-06T04:01:08.670Z,2.10
2022-10-06T04:03:37.222Z,2.70
2022-10-06T04:06:06.945Z,2.07
2022-10-06T04:08:36.185Z,2.30
2022-10-06T04:11:07.784Z,2.30
2022-10-06T04:13:36.200Z,2.10
2022-10-06T04:16:17.208Z,2.53
2022-10-06T04:18:46.283Z,2.27
2022-10-06T04:21:14.438Z,2.33
2022-10-06T04:23:42.636Z,2.53
2022-10-06T04:26:13.704Z,2.03
2022-10-06T04:28:44.015Z,2.30
2022-10-06T04:31:17.324Z,2.00
2022-10-06T04:33:45.761Z,2.80
2022-10-06T04:36:16.786Z,2.20
2022-10-06T04:38:44.873Z,2.17
2022-10-06T04:41:14.247Z,2.20
2022-10-06T04:43:42.337Z,2.30
2022-10-06T04:46:37.558Z,2.67
2022-10-06T04:49:00.705Z,2.00
2022-10-06T04:51:28.891Z,2.23
2022-10-06T04:53:56.561Z,2.40
2022-10-06T04:56:26.102Z,2.00
2022-10-06T04:58:55.426Z,2.33
2022-10-06T05:01:25.794Z,2.17
2022-10-06T05:03:55.904Z,2.33
2022-10-06T05:06:26.424Z,1.90
2022-10-06T05:08:56.032Z,2.57
2022-10-06T05:11:26.023Z,2.23
2022-10-06T05:13:55.936Z,2.70
2022-10-06T05:16:25.478Z,2.50
2022-10-06T05:18:53.267Z,2.70
2022-10-06T05:21:22.746Z,2.20
2022-10-06T05:23:51.912Z,2.60
2022-10-06T05:26:22.091Z,2.40
2022-10-06T05:28:50.450Z,2.67
2022-10-06T05:31:20.207Z,2.13
2022-10-06T05:33:48.905Z,2.80
2022-10-06T05:36:18.150Z,2.50
2022-10-06T05:38:46.380Z,2.50
2022-10-06T05:41:17.298Z,2.53
2022-10-06T05:43:45.459Z,2.33
2022-10-06T05:46:17.531Z,2.40
2022-10-06T05:48:46.792Z,2.80
2022-10-06T05:51:14.924Z,2.63
2022-10-06T05:53:42.713Z,2.73
2022-10-06T05:56:13.164Z,2.87
2022-10-06T05:58:44.585Z,2.93
2022-10-06T06:01:15.054Z,2.17
2022-10-06T06:03:47.458Z,3.57
2022-10-06T06:06:20.775Z,2.30
2022-10-06T06:08:52.405Z,2.47
2022-10-06T06:11:25.358Z,2.97
2022-10-06T06:13:57.299Z,3.07
2022-10-06T06:16:24.971Z,2.77
2022-10-06T06:18:53.410Z,2.87
2022-10-06T06:21:21.736Z,2.57
2022-10-06T06:23:50.127Z,2.30
2022-10-06T06:26:19.900Z,2.40
2022-10-06T06:28:48.578Z,3.00
2022-10-06T06:31:20.615Z,2.90
2022-10-06T06:33:49.860Z,2.40
2022-10-06T06:36:19.995Z,2.83
2022-10-06T06:38:49.694Z,2.60
2022-10-06T06:41:18.770Z,2.70
2022-10-06T06:43:47.527Z,2.50
2022-10-06T06:46:17.960Z,2.40
2022-10-06T06:48:47.176Z,3.00
2022-10-06T06:51:15.175Z,2.47
2022-10-06T06:53:43.019Z,2.43
2022-10-06T06:56:10.911Z,2.63
2022-10-06T06:58:39.137Z,2.57
2022-10-06T07:01:12.107Z,2.53
2022-10-06T07:03:58.576Z,2.70
2022-10-06T07:06:29.311Z,3.00
2022-10-06T07:08:58.280Z,2.70
2022-10-06T07:11:27.890Z,2.37
2022-10-06T07:13:58.129Z,2.20
2022-10-06T07:16:43.632Z,2.57
2022-10-06T07:19:32.278Z,2.40
2022-10-06T07:22:20.303Z,2.70
2022-10-06T07:25:05.732Z,2.33
2022-10-06T07:27:35.952Z,2.70
2022-10-06T07:30:04.078Z,2.50
2022-10-06T07:32:31.822Z,2.40
2022-10-06T07:35:00.915Z,2.23
2022-10-06T07:37:29.782Z,2.57
2022-10-06T07:39:57.392Z,2.70
2022-10-06T07:42:25.071Z,2.50
2022-10-06T07:45:06.730Z,2.60
2022-10-06T07:47:34.898Z,2.80
2022-10-06T07:50:04.112Z,2.50
2022-10-06T07:52:32.482Z,2.53
2022-10-06T07:55:00.210Z,2.53
2022-10-06T07:57:30.230Z,2.40
2022-10-06T08:00:02.079Z,2.67
2022-10-06T08:02:34.707Z,2.92
2022-10-06T08:05:05.197Z,2.67
2022-10-06T08:07:32.925Z,2.33
2022-10-06T08:10:00.711Z,2.47
2022-10-06T08:12:34.670Z,2.17
2022-10-06T08:15:07.032Z,2.35
2022-10-06T08:17:36.883Z,2.50
2022-10-06T08:20:07.888Z,2.20
2022-10-06T08:22:36.811Z,2.47
2022-10-06T08:25:06.513Z,2.60
2022-10-06T08:27:35.634Z,3.03
2022-10-06T08:30:04.394Z,2.40
2022-10-06T08:32:33.063Z,3.08
2022-10-06T08:35:00.737Z,2.53
2022-10-06T08:37:29.779Z,2.63
2022-10-06T08:39:58.380Z,2.88
2022-10-06T08:42:35.417Z,2.95
2022-10-06T08:45:07.410Z,2.10
2022-10-06T08:47:36.495Z,3.03
2022-10-06T08:50:12.726Z,2.53
2022-10-06T08:52:51.878Z,2.40
2022-10-06T08:55:38.774Z,2.55
2022-10-06T08:58:22.735Z,2.83
2022-10-06T09:00:53.223Z,2.50
2022-10-06T09:03:30.489Z,2.95
2022-10-06T09:06:09.489Z,2.58
2022-10-06T09:08:50.898Z,2.80
2022-10-06T09:11:34.858Z,2.83
2022-10-06T09:14:09.773Z,2.60
2022-10-06T09:16:42.071Z,2.83
2022-10-06T09:19:16.777Z,2.47
2022-10-06T09:21:48.728Z,2.57
2022-10-06T09:24:19.480Z,2.40
2022-10-06T09:26:51.834Z,2.70
2022-10-06T09:29:19.580Z,3.20
2022-10-06T09:31:50.616Z,3.40
2022-10-06T09:34:25.688Z,3.17
2022-10-06T09:37:02.743Z,3.13
2022-10-06T09:39:36.568Z,2.20
2022-10-06T09:42:12.359Z,2.30
2022-10-06T09:44:48.141Z,2.87
2022-10-06T09:47:31.873Z,2.67
2022-10-06T09:50:17.631Z,3.10
2022-10-06T09:53:04.253Z,3.72
2022-10-06T09:55:41.356Z,2.97
2022-10-06T09:58:21.486Z,2.80
2022-10-06T10:00:55.170Z,2.83
2022-10-06T10:03:25.998Z,2.58
2022-10-06T10:05:56.106Z,2.38
2022-10-06T10:08:26.187Z,2.20
2022-10-06T10:11:32.588Z,2.90
2022-10-06T10:14:01.023Z,2.63
2022-10-06T10:16:34.630Z,2.77
2022-10-06T10:19:05.612Z,2.58
2022-10-06T10:21:35.528Z,2.60
2022-10-06T10:24:07.692Z,2.37
2022-10-06T10:26:50.084Z,2.43
2022-10-06T10:29:45.438Z,3.37
2022-10-06T10:32:19.666Z,2.60
2022-10-06T10:35:16.545Z,2.90
2022-10-06T10:37:51.294Z,2.67
2022-10-06T10:40:42.918Z,2.75
2022-10-06T10:43:27.529Z,2.37
2022-10-06T10:46:00.335Z,2.97
2022-10-06T10:48:31.982Z,2.40
2022-10-06T10:51:07.628Z,2.60
2022-10-06T10:53:45.401Z,2.07
2022-10-06T10:56:16.186Z,2.73
2022-10-06T10:58:46.843Z,3.00
2022-10-06T11:01:25.685Z,2.70
2022-10-06T11:03:57.522Z,2.73
2022-10-06T11:06:47.413Z,2.70
2022-10-06T11:09:18.504Z,2.47
2022-10-06T11:11:58.713Z,2.70
2022-10-06T11:14:46.875Z,2.63
2022-10-06T11:17:26.047Z,2.65
2022-10-06T11:20:04.331Z,2.57
2022-10-06T11:22:42.514Z,2.20
2022-10-06T11:25:26.961Z,2.47
2022-10-06T11:28:05.373Z,2.30
2022-10-06T11:30:39.206Z,2.40
2022-10-06T11:33:17.018Z,2.53
2022-10-06T11:35:48.275Z,2.20
2022-10-06T11:38:25.267Z,2.40
2022-10-06T11:41:09.882Z,2.43
2022-10-06T11:43:46.776Z,2.17
2022-10-06T11:46:31.767Z,2.37
2022-10-06T11:49:39.585Z,2.40
2022-10-06T11:52:45.572Z,2.20
2022-10-06T11:55:26.254Z,2.80
2022-10-06T12:01:02.389Z,2.30
2022-10-06T12:03:49.633Z,2.30
2022-10-06T12:06:58.737Z,2.27
2022-10-06T12:09:52.013Z,2.63
2022-10-06T12:13:05.306Z,2.08
2022-10-06T12:19:04.205Z,2.38
2022-10-06T12:21:45.662Z,2.38
2022-10-06T12:24:25.764Z,2.10
2022-10-06T12:27:07.398Z,2.42
2022-10-06T12:29:47.258Z,2.03
2022-10-06T12:32:34.796Z,2.30
2022-10-06T12:35:16.500Z,2.37
2022-10-06T12:37:50.179Z,2.33
2022-10-06T12:40:50.079Z,2.60
2022-10-06T12:43:50.425Z,2.90
2022-10-06T12:46:30.037Z,2.33
2022-10-06T12:49:25.267Z,1.97
2022-10-06T12:51:57.903Z,2.17
2022-10-06T12:54:34.843Z,2.10
2022-10-06T12:57:04.211Z,2.00
2022-10-06T12:59:33.826Z,2.10
2022-10-06T13:02:03.955Z,2.10
2022-10-06T13:04:34.517Z,1.98
2022-10-06T13:07:09.803Z,2.08
2022-10-06T13:09:37.732Z,2.13
2022-10-06T13:12:31.774Z,2.23
2022-10-06T13:15:23.756Z,2.40
2022-10-06T13:17:53.988Z,2.23
2022-10-06T13:20:25.396Z,2.33
2022-10-06T13:22:59.663Z,2.10
2022-10-06T13:25:36.593Z,2.60
2022-10-06T13:28:04.565Z,2.10
2022-10-06T13:30:37.693Z,2.10
2022-10-06T13:33:08.611Z,1.98
2022-10-06T13:35:36.496Z,2.40
2022-10-06T13:38:06.409Z,2.15
2022-10-06T13:40:44.197Z,1.90
2022-10-06T13:43:18.070Z,1.93
2022-10-06T13:45:48.322Z,1.70
2022-10-06T13:48:21.174Z,2.20
2022-10-06T13:50:50.099Z,1.90
2022-10-06T13:53:28.736Z,1.73
2022-10-06T13:55:56.740Z,1.90
2022-10-06T13:58:28.179Z,2.10
2022-10-06T14:00:58.157Z,2.07
2022-10-06T14:03:28.701Z,2.30
2022-10-06T14:06:09.853Z,2.40
2022-10-06T14:08:39.392Z,1.67
2022-10-06T14:11:09.025Z,1.98
2022-10-06T14:13:45.098Z,2.05
2022-10-06T14:16:21.765Z,2.20
2022-10-06T14:21:41.369Z,1.70
2022-10-06T14:24:26.063Z,1.70
2022-10-06T14:26:54.845Z,2.15
2022-10-06T14:29:23.526Z,2.00
2022-10-06T14:31:51.429Z,2.30
2022-10-06T14:34:21.713Z,2.17
2022-10-06T14:36:52.468Z,2.17
2022-10-06T14:39:21.932Z,1.93
2022-10-06T14:41:49.911Z,2.10
2022-10-06T14:44:17.631Z,1.83
2022-10-06T14:46:48.785Z,1.97
2022-10-06T14:49:16.733Z,2.43
2022-10-06T14:51:45.538Z,1.80
2022-10-06T14:54:13.752Z,1.55
2022-10-06T14:56:43.678Z,2.10
2022-10-06T14:59:16.898Z,2.10
2022-10-06T15:01:45.742Z,1.80
2022-10-06T15:04:14.603Z,2.15
2022-10-06T15:07:00.352Z,1.77
2022-10-06T15:09:30.852Z,2.33
2022-10-06T15:12:01.031Z,1.43
2022-10-06T15:14:29.515Z,1.90
2022-10-06T15:16:59.161Z,1.87
2022-10-06T15:19:27.201Z,1.50
2022-10-06T15:21:54.923Z,2.13
2022-10-06T15:24:22.730Z,2.10
2022-10-06T15:27:08.336Z,2.08
2022-10-06T15:29:37.423Z,1.63
2022-10-06T15:32:06.661Z,2.30
2022-10-06T15:34:36.955Z,1.90
2022-10-06T15:37:05.123Z,2.38
2022-10-06T15:39:36.676Z,2.10
2022-10-06T15:42:05.155Z,2.05
2022-10-06T15:44:34.595Z,2.20
2022-10-06T15:47:05.966Z,2.20
2022-10-06T15:49:38.160Z,1.77
2022-10-06T15:52:06.942Z,2.00
2022-10-06T15:54:37.513Z,2.33
2022-10-06T15:57:08.652Z,1.85
2022-10-06T15:59:37.176Z,1.93
2022-10-06T16:02:09.875Z,2.03
2022-10-06T16:04:55.120Z,1.90
2022-10-06T16:07:22.975Z,2.60
2022-10-06T16:09:52.208Z,2.42
2022-10-06T16:12:21.941Z,2.20
2022-10-06T16:14:50.038Z,1.90
2022-10-06T16:17:19.712Z,2.47
2022-10-06T16:19:47.739Z,2.60
2022-10-06T16:22:18.203Z,2.03
2022-10-06T16:24:46.147Z,2.00
2022-10-06T16:27:14.867Z,2.13
2022-10-06T16:29:42.581Z,1.87
2022-10-06T16:32:10.770Z,3.07
2022-10-06T16:34:39.872Z,2.47
2022-10-06T16:37:07.579Z,2.27
2022-10-06T16:39:35.393Z,2.03
2022-10-06T16:42:03.721Z,2.23
2022-10-06T16:44:31.378Z,2.03
2022-10-06T16:46:59.288Z,2.10
2022-10-06T16:49:28.268Z,2.20
2022-10-06T16:51:57.493Z,2.43
2022-10-06T16:54:25.599Z,2.77
2022-10-06T16:56:54.353Z,2.80
2022-10-06T16:59:24.191Z,2.27
2022-10-06T17:01:52.072Z,2.90
2022-10-06T17:04:21.341Z,2.30
2022-10-06T17:06:50.697Z,2.93
2022-10-06T17:09:21.877Z,2.47
2022-10-06T17:11:51.643Z,2.70
2022-10-06T17:14:21.261Z,3.13
2022-10-06T17:16:51.805Z,2.70
2022-10-06T17:19:21.761Z,2.80
2022-10-06T17:21:54.090Z,2.50
2022-10-06T17:24:28.029Z,1.97
2022-10-06T17:26:57.216Z,2.30
2022-10-06T17:29:26.665Z,2.57
2022-10-06T17:31:58.980Z,2.27
2022-10-06T17:34:32.500Z,2.67
2022-10-06T17:37:02.215Z,3.20
2022-10-06T17:39:32.137Z,3.40
2022-10-06T17:42:00.064Z,4.03
2022-10-06T17:44:29.308Z,3.57
2022-10-06T17:46:59.085Z,3.47
2022-10-06T17:49:28.654Z,3.10
2022-10-06T17:51:56.788Z,2.60
2022-10-06T17:54:27.049Z,3.20
2022-10-06T17:56:58.872Z,3.00
2022-10-06T17:59:30.222Z,2.77
2022-10-06T18:02:00.596Z,2.40
2022-10-06T18:04:28.918Z,2.30
2022-10-06T18:06:57.422Z,2.30
2022-10-06T18:09:25.551Z,2.40
2022-10-06T18:11:56.134Z,2.83
2022-10-06T18:14:28.132Z,2.27
2022-10-06T18:16:58.987Z,2.17
2022-10-06T18:19:30.191Z,2.57
2022-10-06T18:22:00.531Z,2.20
2022-10-06T18:24:30.903Z,2.17
2022-10-06T18:27:00.944Z,1.80
2022-10-06T18:29:33.893Z,2.57
2022-10-06T18:32:56.655Z,2.50
2022-10-06T18:37:39.682Z,2.10
2022-10-06T18:40:09.948Z,2.33
2022-10-06T18:42:37.925Z,2.93
2022-10-06T18:45:26.789Z,3.73
2022-10-06T18:48:12.233Z,3.20
2022-10-06T18:50:40.124Z,3.80
2022-10-06T18:53:07.964Z,2.90
2022-10-06T18:55:35.857Z,2.80
2022-10-06T18:58:04.623Z,2.20
2022-10-06T19:00:34.221Z,2.67
2022-10-06T19:03:02.016Z,3.20
2022-10-06T19:05:30.934Z,3.27
2022-10-06T19:07:58.833Z,3.53
2022-10-06T19:10:26.726Z,5.00
2022-10-06T19:12:54.479Z,3.80
2022-10-06T19:15:22.496Z,3.57
2022-10-06T19:17:51.677Z,4.03
2022-10-06T19:20:19.624Z,3.97
2022-10-06T19:22:48.352Z,4.23
2022-10-06T19:25:18.652Z,3.67
2022-10-06T19:27:46.681Z,4.00
2022-10-06T19:30:14.527Z,4.23
2022-10-06T19:32:42.335Z,3.53
2022-10-06T19:35:12.563Z,3.20
2022-10-06T19:37:41.051Z,3.97
2022-10-06T19:40:11.339Z,3.67
2022-10-06T19:42:51.254Z,3.73
2022-10-06T19:45:20.987Z,2.80
2022-10-06T19:47:48.923Z,2.90
2022-10-06T19:50:18.379Z,3.07
2022-10-06T19:52:46.428Z,2.60
2022-10-06T19:55:14.298Z,2.50
2022-10-06T19:57:42.911Z,2.73
2022-10-06T20:00:12.235Z,2.60
2022-10-06T20:02:42.867Z,2.37
2022-10-06T20:05:11.850Z,2.40
2022-10-06T20:07:41.687Z,2.90
2022-10-06T20:10:09.722Z,3.37
2022-10-06T20:12:38.344Z,2.63
2022-10-06T20:15:07.156Z,2.93
2022-10-06T20:17:35.347Z,3.30
2022-10-06T20:20:03.193Z,2.77
2022-10-06T20:22:31.706Z,3.20
2022-10-06T20:25:02.362Z,2.70
2022-10-06T20:27:30.105Z,3.30
2022-10-06T20:29:58.249Z,2.93
2022-10-06T20:32:25.953Z,3.10
2022-10-06T20:34:53.724Z,2.70
2022-10-06T20:37:21.504Z,3.03
2022-10-06T20:40:06.620Z,3.20
2022-10-06T20:42:35.696Z,3.20
2022-10-06T20:45:03.475Z,3.10
2022-10-06T20:47:31.248Z,3.13
2022-10-06T20:49:59.122Z,2.57
2022-10-06T20:52:26.890Z,2.63
2022-10-06T20:54:54.854Z,2.90
2022-10-06T20:57:22.877Z,2.77
2022-10-06T20:59:52.717Z,2.63
2022-10-06T21:02:20.537Z,2.60
2022-10-06T21:04:48.226Z,2.70
2022-10-06T21:07:15.907Z,2.70
2022-10-06T21:09:44.932Z,2.70
2022-10-06T21:12:16.054Z,2.60
2022-10-06T21:14:43.898Z,2.57
2022-10-06T21:17:12.916Z,2.57
2022-10-06T21:19:40.633Z,2.80
2022-10-06T21:22:08.303Z,2.30
2022-10-06T21:24:36.012Z,2.93
2022-10-06T21:27:03.657Z,2.50
2022-10-06T21:29:31.449Z,2.53
2022-10-06T21:31:59.611Z,2.53
2022-10-06T21:34:28.586Z,2.43
2022-10-06T21:36:56.586Z,2.47
2022-10-06T21:39:24.234Z,2.80
2022-10-06T21:41:51.954Z,2.90
2022-10-06T21:44:19.955Z,3.43
2022-10-06T21:46:49.415Z,2.83
2022-10-06T21:49:19.714Z,2.67
2022-10-06T21:51:50.841Z,2.97
2022-10-06T21:54:19.204Z,2.30
2022-10-06T21:56:47.384Z,2.77
2022-10-06T21:59:15.490Z,2.73
2022-10-06T22:01:44.859Z,2.93
2022-10-06T22:04:14.261Z,2.57
2022-10-06T22:06:42.898Z,2.87
2022-10-06T22:09:15.913Z,2.90
2022-10-06T22:11:44.364Z,2.90
2022-10-06T22:14:14.271Z,2.57
2022-10-06T22:16:42.318Z,3.10
2022-10-06T22:19:12.014Z,3.40
2022-10-06T22:21:41.827Z,2.57
2022-10-06T22:24:13.413Z,2.63
2022-10-06T22:26:42.497Z,2.57
2022-10-06T22:29:12.414Z,3.10
2022-10-06T22:31:42.493Z,2.77
2022-10-06T22:34:12.010Z,3.83
2022-10-06T22:36:40.823Z,5.00
2022-10-06T22:39:08.899Z,4.27
2022-10-06T22:41:38.389Z,3.97
2022-10-06T22:44:06.279Z,3.33
2022-10-06T22:46:36.195Z,2.97
2022-10-06T22:49:04.282Z,4.47
2022-10-06T22:51:33.037Z,4.03
2022-10-06T22:54:01.000Z,3.50
2022-10-06T22:56:30.257Z,3.80
2022-10-06T22:59:00.330Z,4.20
2022-10-06T23:01:29.853Z,3.47
2022-10-06T23:03:58.272Z,3.80
2022-10-06T23:06:26.691Z,3.43
2022-10-06T23:08:54.363Z,3.40
2022-10-06T23:11:23.399Z,2.70
2022-10-06T23:13:52.959Z,2.80
2022-10-06T23:16:22.808Z,3.20
2022-10-06T23:18:50.762Z,2.50
2022-10-06T23:21:21.643Z,2.73
2022-10-06T23:23:51.278Z,2.63
2022-10-06T23:26:19.951Z,2.93
2022-10-06T23:28:52.315Z,3.27
2022-10-06T23:31:20.045Z,3.10
2022-10-06T23:33:49.188Z,2.90
2022-10-06T23:36:17.695Z,3.60
2022-10-06T23:38:45.759Z,3.47
2022-10-06T23:41:14.232Z,2.70
2022-10-06T23:43:41.958Z,2.90
2022-10-06T23:46:09.933Z,2.90
2022-10-06T23:48:37.734Z,2.90
2022-10-06T23:51:09.211Z,2.80
2022-10-06T23:53:37.179Z,3.03
2022-10-06T23:56:05.442Z,3.30
2022-10-06T23:58:33.177Z,2.90
